createdAt,value
2019-05-11T00:00:49.189Z,16.07
2019-05-11T00:01:57.296Z,18.77
2019-05-11T00:03:05.973Z,17.67
2019-05-11T00:04:13.873Z,18.93
2019-05-11T00:05:22.484Z,18.40
2019-05-11T00:06:30.511Z,22.20
2019-05-11T00:07:38.994Z,18.90
2019-05-11T00:08:46.698Z,18.43
2019-05-11T00:09:58.069Z,17.37
2019-05-11T00:11:05.000Z,21.23
2019-05-11T00:12:13.381Z,16.03
2019-05-11T00:13:21.219Z,16.63
2019-05-11T00:14:29.370Z,18.57
2019-05-11T00:15:37.292Z,23.53
2019-05-11T00:16:45.770Z,24.67
2019-05-11T00:17:53.645Z,21.17
2019-05-11T00:19:02.015Z,24.03
2019-05-11T00:20:10.924Z,25.33
2019-05-11T00:21:19.378Z,18.57
2019-05-11T00:22:27.573Z,20.03
2019-05-11T00:23:36.018Z,19.10
2019-05-11T00:24:43.807Z,20.33
2019-05-11T00:25:52.229Z,18.73
2019-05-11T00:27:00.389Z,24.03
2019-05-11T00:28:08.857Z,15.80
2019-05-11T00:29:17.013Z,20.50
2019-05-11T00:30:25.479Z,21.03
2019-05-11T00:31:33.471Z,23.13
2019-05-11T00:32:41.947Z,14.83
2019-05-11T00:33:50.053Z,21.17
2019-05-11T00:34:58.526Z,18.50
2019-05-11T00:36:06.684Z,19.87
2019-05-11T00:37:15.432Z,18.83
2019-05-11T00:38:23.541Z,20.43
2019-05-11T00:39:32.040Z,20.60
2019-05-11T00:40:40.426Z,20.73
2019-05-11T00:41:48.801Z,26.30
2019-05-11T00:42:57.017Z,20.13
2019-05-11T00:44:05.648Z,20.73
2019-05-11T00:45:14.079Z,15.20
2019-05-11T00:46:22.317Z,22.47
2019-05-11T00:47:30.267Z,18.73
2019-05-11T00:48:38.487Z,15.23
2019-05-11T00:49:46.341Z,21.43
2019-05-11T00:50:54.655Z,22.07
2019-05-11T00:52:02.711Z,23.53
2019-05-11T00:53:11.019Z,21.87
2019-05-11T00:54:19.066Z,17.80
2019-05-11T00:55:27.798Z,16.10
2019-05-11T00:56:35.988Z,21.43
2019-05-11T00:57:44.414Z,18.93
2019-05-11T00:58:52.412Z,22.70
2019-05-11T01:00:00.970Z,19.10
2019-05-11T01:01:08.773Z,17.27
2019-05-11T01:02:17.393Z,18.30
2019-05-11T01:03:25.231Z,18.07
2019-05-11T01:04:33.637Z,22.57
2019-05-11T01:05:41.587Z,19.50
2019-05-11T01:06:50.123Z,17.77
2019-05-11T01:07:58.014Z,22.47
2019-05-11T01:09:08.310Z,13.07
2019-05-11T01:10:25.491Z,21.77
2019-05-11T01:11:26.575Z,16.93
2019-05-11T01:12:34.363Z,17.33
2019-05-11T01:13:42.955Z,16.10
2019-05-11T01:14:51.247Z,19.87
2019-05-11T01:15:59.597Z,17.93
2019-05-11T01:17:07.738Z,21.23
2019-05-11T01:18:16.284Z,16.83
2019-05-11T01:19:24.008Z,22.30
2019-05-11T01:20:32.440Z,18.80
2019-05-11T01:21:40.472Z,13.87
2019-05-11T01:22:48.792Z,15.47
2019-05-11T01:23:57.733Z,17.50
2019-05-11T01:25:07.270Z,15.27
2019-05-11T01:26:15.402Z,16.60
2019-05-11T01:27:23.572Z,17.33
2019-05-11T01:28:31.619Z,16.47
2019-05-11T01:29:39.919Z,20.37
2019-05-11T01:30:47.872Z,15.37
2019-05-11T01:31:56.354Z,19.67
2019-05-11T01:33:04.268Z,17.93
2019-05-11T01:34:12.614Z,19.00
2019-05-11T01:35:20.440Z,16.67
2019-05-11T01:36:28.753Z,16.53
2019-05-11T01:37:37.107Z,14.40
2019-05-11T01:38:45.724Z,17.60
2019-05-11T01:39:53.734Z,13.23
2019-05-11T01:41:02.325Z,18.37
2019-05-11T01:42:10.316Z,10.87
2019-05-11T01:43:18.680Z,17.00
2019-05-11T01:44:29.305Z,16.13
2019-05-11T01:45:38.192Z,11.40
2019-05-11T01:46:46.356Z,14.17
2019-05-11T01:47:54.970Z,19.60
2019-05-11T01:49:03.344Z,12.60
2019-05-11T01:50:12.176Z,15.07
2019-05-11T01:51:20.558Z,15.73
2019-05-11T01:52:28.948Z,13.27
2019-05-11T01:53:36.856Z,13.37
2019-05-11T01:54:45.405Z,19.77
2019-05-11T01:55:53.232Z,12.70
2019-05-11T01:57:01.553Z,16.00
2019-05-11T01:58:09.650Z,14.57
2019-05-11T01:59:18.052Z,14.13
2019-05-11T02:00:26.166Z,16.37
2019-05-11T02:01:34.269Z,15.57
2019-05-11T02:02:42.356Z,14.43
2019-05-11T02:03:50.711Z,17.33
2019-05-11T02:05:16.435Z,16.17
2019-05-11T02:06:24.452Z,14.40
2019-05-11T02:07:32.650Z,14.93
2019-05-11T02:08:40.914Z,14.53
2019-05-11T02:09:49.165Z,12.00
2019-05-11T02:10:57.238Z,10.53
2019-05-11T02:12:05.718Z,19.17
2019-05-11T02:13:13.680Z,16.43
2019-05-11T02:14:22.191Z,23.17
2019-05-11T02:15:30.225Z,16.10
2019-05-11T02:16:38.853Z,17.43
2019-05-11T02:17:46.969Z,17.37
2019-05-11T02:18:55.345Z,14.27
2019-05-11T02:20:03.655Z,18.17
2019-05-11T02:21:12.418Z,14.63
2019-05-11T02:22:20.466Z,12.57
2019-05-11T02:23:29.095Z,14.43
2019-05-11T02:24:37.040Z,14.97
2019-05-11T02:25:45.154Z,14.90
2019-05-11T02:26:53.461Z,15.37
2019-05-11T02:28:01.724Z,13.07
2019-05-11T02:29:09.820Z,12.63
2019-05-11T02:30:19.686Z,14.17
2019-05-11T02:31:29.023Z,11.93
2019-05-11T02:32:37.487Z,10.77
2019-05-11T02:33:45.380Z,8.80
2019-05-11T02:34:53.566Z,11.70
2019-05-11T02:36:01.562Z,12.63
2019-05-11T02:37:10.254Z,13.37
2019-05-11T02:38:18.114Z,11.03
2019-05-11T02:39:26.444Z,6.97
2019-05-11T02:40:34.709Z,7.63
2019-05-11T02:41:43.152Z,11.70
2019-05-11T02:42:51.216Z,8.30
2019-05-11T02:43:59.536Z,9.10
2019-05-11T02:45:08.804Z,9.63
2019-05-11T02:46:18.086Z,14.23
2019-05-11T02:47:26.062Z,8.70
2019-05-11T02:48:34.461Z,11.93
2019-05-11T02:49:42.591Z,12.60
2019-05-11T02:50:53.312Z,9.37
2019-05-11T02:52:02.029Z,11.40
2019-05-11T02:53:11.358Z,9.53
2019-05-11T02:54:20.216Z,8.50
2019-05-11T02:55:29.757Z,8.57
2019-05-11T02:56:37.499Z,9.50
2019-05-11T02:57:45.884Z,11.40
2019-05-11T02:58:53.776Z,11.73
2019-05-11T03:00:02.489Z,11.37
2019-05-11T03:01:11.032Z,13.60
2019-05-11T03:02:19.603Z,10.33
2019-05-11T03:03:27.493Z,9.97
2019-05-11T03:04:35.814Z,12.27
2019-05-11T03:05:44.290Z,9.50
2019-05-11T03:06:52.809Z,8.47
2019-05-11T03:08:00.821Z,9.50
2019-05-11T03:09:09.220Z,10.33
2019-05-11T03:10:17.514Z,10.90
2019-05-11T03:11:26.288Z,9.93
2019-05-11T03:12:34.247Z,11.57
2019-05-11T03:13:42.529Z,8.87
2019-05-11T03:14:50.471Z,11.10
2019-05-11T03:15:58.711Z,10.63
2019-05-11T03:17:10.990Z,10.17
2019-05-11T03:18:19.525Z,10.87
2019-05-11T03:19:27.714Z,12.13
2019-05-11T03:20:36.037Z,9.77
2019-05-11T03:21:43.983Z,9.10
2019-05-11T03:22:52.484Z,10.70
2019-05-11T03:24:00.612Z,11.20
2019-05-11T03:25:08.838Z,8.63
2019-05-11T03:26:16.866Z,12.33
2019-05-11T03:27:25.174Z,9.93
2019-05-11T03:28:33.311Z,10.40
2019-05-11T03:29:41.624Z,11.57
2019-05-11T03:30:49.855Z,11.87
2019-05-11T03:31:58.229Z,15.17
2019-05-11T03:33:06.181Z,13.80
2019-05-11T03:34:14.568Z,9.97
2019-05-11T03:35:22.712Z,13.30
2019-05-11T03:36:31.277Z,9.47
2019-05-11T03:37:39.308Z,11.30
2019-05-11T03:38:47.803Z,11.43
2019-05-11T03:39:55.774Z,10.83
2019-05-11T03:41:04.477Z,13.43
2019-05-11T03:42:15.007Z,10.97
2019-05-11T03:43:22.605Z,10.63
2019-05-11T03:44:30.759Z,10.17
2019-05-11T03:45:39.169Z,14.47
2019-05-11T03:46:47.301Z,14.77
2019-05-11T03:47:55.620Z,10.73
2019-05-11T03:49:03.416Z,15.73
2019-05-11T03:50:12.171Z,11.67
2019-05-11T03:51:19.980Z,11.50
2019-05-11T03:52:28.261Z,19.53
2019-05-11T03:53:36.272Z,14.10
2019-05-11T03:54:44.552Z,13.10
2019-05-11T03:55:52.676Z,15.63
2019-05-11T03:57:00.919Z,13.77
2019-05-11T03:58:09.136Z,14.97
2019-05-11T03:59:18.324Z,14.33
2019-05-11T04:00:26.596Z,14.43
2019-05-11T04:01:34.977Z,15.00
2019-05-11T04:02:42.877Z,14.23
2019-05-11T04:03:51.484Z,15.90
2019-05-11T04:04:59.457Z,11.07
2019-05-11T04:06:07.881Z,12.20
2019-05-11T04:07:16.303Z,10.90
2019-05-11T04:08:24.820Z,11.80
2019-05-11T04:09:32.988Z,18.30
2019-05-11T04:10:41.187Z,16.17
2019-05-11T04:11:49.328Z,11.30
2019-05-11T04:12:57.805Z,9.67
2019-05-11T04:14:05.875Z,11.60
2019-05-11T04:15:15.252Z,11.27
2019-05-11T04:16:23.475Z,11.37
2019-05-11T04:17:31.802Z,15.50
2019-05-11T04:18:40.151Z,12.83
2019-05-11T04:19:48.559Z,12.90
2019-05-11T04:20:56.653Z,11.87
2019-05-11T04:22:05.267Z,14.37
2019-05-11T04:23:13.559Z,8.37
2019-05-11T04:24:22.069Z,11.17
2019-05-11T04:25:30.164Z,13.27
2019-05-11T04:26:38.534Z,11.37
2019-05-11T04:27:48.420Z,14.00
2019-05-11T04:28:56.694Z,9.93
2019-05-11T04:30:09.506Z,10.70
2019-05-11T04:31:18.835Z,9.13
2019-05-11T04:32:26.679Z,11.67
2019-05-11T04:33:34.987Z,8.27
2019-05-11T04:34:45.000Z,11.47
2019-05-11T04:35:53.248Z,7.70
2019-05-11T04:37:01.068Z,10.23
2019-05-11T04:38:09.595Z,9.80
2019-05-11T04:39:17.750Z,10.07
2019-05-11T04:40:26.082Z,13.23
2019-05-11T04:41:34.402Z,14.17
2019-05-11T04:42:54.011Z,11.10
2019-05-11T04:43:52.625Z,14.57
2019-05-11T04:45:00.995Z,10.90
2019-05-11T04:46:09.584Z,11.63
2019-05-11T04:47:18.013Z,12.33
2019-05-11T04:48:26.046Z,9.60
2019-05-11T04:49:34.226Z,11.37
2019-05-11T04:50:42.228Z,10.00
2019-05-11T04:51:50.540Z,12.60
2019-05-11T04:52:58.595Z,11.03
2019-05-11T04:54:07.001Z,13.00
2019-05-11T04:55:15.314Z,12.33
2019-05-11T04:56:23.640Z,12.17
2019-05-11T04:57:31.483Z,10.80
2019-05-11T04:58:39.910Z,11.10
2019-05-11T04:59:47.881Z,12.77
2019-05-11T05:00:56.186Z,8.93
2019-05-11T05:02:04.069Z,10.43
2019-05-11T05:03:12.779Z,10.43
2019-05-11T05:04:20.795Z,12.20
2019-05-11T05:05:29.186Z,11.37
2019-05-11T05:06:38.941Z,9.27
2019-05-11T05:07:49.001Z,10.03
2019-05-11T05:08:58.087Z,9.33
2019-05-11T05:10:07.665Z,12.13
2019-05-11T05:11:15.861Z,6.67
2019-05-11T05:12:24.201Z,10.07
2019-05-11T05:13:32.210Z,10.60
2019-05-11T05:14:41.142Z,10.03
2019-05-11T05:15:49.922Z,8.80
2019-05-11T05:16:58.263Z,9.60
2019-05-11T05:18:06.229Z,8.80
2019-05-11T05:19:15.047Z,6.90
2019-05-11T05:20:23.098Z,9.77
2019-05-11T05:21:31.442Z,7.20
2019-05-11T05:22:39.477Z,7.87
2019-05-11T05:23:47.966Z,11.57
2019-05-11T05:24:56.148Z,8.30
2019-05-11T05:26:04.735Z,13.50
2019-05-11T05:27:12.936Z,8.53
2019-05-11T05:28:21.445Z,8.73
2019-05-11T05:29:29.729Z,14.47
2019-05-11T05:30:38.340Z,10.67
2019-05-11T05:31:46.381Z,11.33
2019-05-11T05:32:55.418Z,9.23
2019-05-11T05:34:03.772Z,11.67
2019-05-11T05:35:12.326Z,9.90
2019-05-11T05:36:20.669Z,9.07
2019-05-11T05:37:29.237Z,11.43
2019-05-11T05:38:37.276Z,9.73
2019-05-11T05:39:46.148Z,10.10
2019-05-11T05:40:54.548Z,9.27
2019-05-11T05:42:03.070Z,10.73
2019-05-11T05:43:25.577Z,8.17
2019-05-11T05:44:21.297Z,9.30
2019-05-11T05:45:29.597Z,9.93
2019-05-11T05:46:38.307Z,7.67
2019-05-11T05:47:46.215Z,15.43
2019-05-11T05:48:55.046Z,10.73
2019-05-11T05:50:03.498Z,8.73
2019-05-11T05:51:11.920Z,6.90
2019-05-11T05:52:20.742Z,10.77
2019-05-11T05:53:29.237Z,8.50
2019-05-11T05:54:37.252Z,9.63
2019-05-11T05:55:45.761Z,7.67
2019-05-11T05:56:54.088Z,9.33
2019-05-11T05:58:02.432Z,8.17
2019-05-11T05:59:10.409Z,10.47
2019-05-11T06:00:20.218Z,10.37
2019-05-11T06:01:28.487Z,9.47
2019-05-11T06:02:36.878Z,7.97
2019-05-11T06:03:45.085Z,6.77
2019-05-11T06:04:53.698Z,5.83
2019-05-11T06:06:01.671Z,7.03
2019-05-11T06:07:10.500Z,6.73
2019-05-11T06:08:19.027Z,6.03
2019-05-11T06:09:27.392Z,9.23
2019-05-11T06:10:35.643Z,8.73
2019-05-11T06:11:43.986Z,5.97
2019-05-11T06:12:52.131Z,6.27
2019-05-11T06:14:00.716Z,5.70
2019-05-11T06:15:09.962Z,10.13
2019-05-11T06:16:18.315Z,4.87
2019-05-11T06:17:26.743Z,7.67
2019-05-11T06:18:35.378Z,5.30
2019-05-11T06:19:43.448Z,5.70
2019-05-11T06:20:52.047Z,6.33
2019-05-11T06:22:00.227Z,5.10
2019-05-11T06:23:08.804Z,6.03
2019-05-11T06:24:16.855Z,4.80
2019-05-11T06:25:25.633Z,5.30
2019-05-11T06:26:33.598Z,8.13
2019-05-11T06:27:41.989Z,4.53
2019-05-11T06:28:50.298Z,5.47
2019-05-11T06:29:58.666Z,11.57
2019-05-11T06:31:06.952Z,4.37
2019-05-11T06:32:15.443Z,7.60
2019-05-11T06:33:23.513Z,5.83
2019-05-11T06:34:32.006Z,5.43
2019-05-11T06:35:39.976Z,4.13
2019-05-11T06:36:48.423Z,5.37
2019-05-11T06:37:56.724Z,4.43
2019-05-11T06:39:07.851Z,5.20
2019-05-11T06:40:15.963Z,5.43
2019-05-11T06:41:24.455Z,5.50
2019-05-11T06:42:32.374Z,8.40
2019-05-11T06:43:40.872Z,5.53
2019-05-11T06:44:48.824Z,8.90
2019-05-11T06:45:57.288Z,6.27
2019-05-11T06:47:05.566Z,7.13
2019-05-11T06:48:14.073Z,6.87
2019-05-11T06:49:22.286Z,6.13
2019-05-11T06:50:30.680Z,5.33
2019-05-11T06:51:40.566Z,5.23
2019-05-11T06:52:49.681Z,5.07
2019-05-11T06:53:57.648Z,5.23
2019-05-11T06:55:07.021Z,5.47
2019-05-11T06:56:14.955Z,8.43
2019-05-11T06:57:23.645Z,6.63
2019-05-11T06:58:31.558Z,6.10
2019-05-11T06:59:39.964Z,4.20
2019-05-11T07:00:48.165Z,5.10
2019-05-11T07:01:56.707Z,7.37
2019-05-11T07:03:04.817Z,4.47
2019-05-11T07:04:13.293Z,4.20
2019-05-11T07:05:21.503Z,4.50
2019-05-11T07:06:30.660Z,3.70
2019-05-11T07:07:47.641Z,8.13
2019-05-11T07:08:49.140Z,7.47
2019-05-11T07:09:57.504Z,6.47
2019-05-11T07:11:06.220Z,3.50
2019-05-11T07:12:14.420Z,3.60
2019-05-11T07:13:23.125Z,5.00
2019-05-11T07:14:31.257Z,3.27
2019-05-11T07:15:39.823Z,4.17
2019-05-11T07:16:47.946Z,2.33
2019-05-11T07:17:56.436Z,5.03
2019-05-11T07:19:04.667Z,4.40
2019-05-11T07:20:13.486Z,5.20
2019-05-11T07:21:21.563Z,4.27
2019-05-11T07:22:30.182Z,5.13
2019-05-11T07:23:38.100Z,3.73
2019-05-11T07:24:46.946Z,4.23
2019-05-11T07:25:55.202Z,5.43
2019-05-11T07:27:04.175Z,7.87
2019-05-11T07:28:12.198Z,5.73
2019-05-11T07:29:20.607Z,4.37
2019-05-11T07:30:28.929Z,4.60
2019-05-11T07:31:37.236Z,5.47
2019-05-11T07:32:47.920Z,3.33
2019-05-11T07:33:55.772Z,5.20
2019-05-11T07:35:04.752Z,6.33
2019-05-11T07:36:13.182Z,3.33
2019-05-11T07:37:24.086Z,4.03
2019-05-11T07:38:31.279Z,4.43
2019-05-11T07:39:39.614Z,3.90
2019-05-11T07:40:47.953Z,6.30
2019-05-11T07:41:58.381Z,2.83
2019-05-11T07:43:09.556Z,7.13
2019-05-11T07:44:16.062Z,4.63
2019-05-11T07:45:24.968Z,5.70
2019-05-11T07:46:34.362Z,4.90
2019-05-11T07:47:43.004Z,7.50
2019-05-11T07:48:51.273Z,3.43
2019-05-11T07:49:59.887Z,4.13
2019-05-11T07:51:08.927Z,4.67
2019-05-11T07:52:18.294Z,4.97
2019-05-11T07:53:27.948Z,4.07
2019-05-11T07:54:38.497Z,5.70
2019-05-11T07:55:48.483Z,7.10
2019-05-11T07:56:58.433Z,3.33
2019-05-11T07:58:08.040Z,6.33
2019-05-11T07:59:18.382Z,5.47
2019-05-11T08:00:28.039Z,6.40
2019-05-11T08:01:38.679Z,4.57
2019-05-11T08:02:47.975Z,2.60
2019-05-11T08:03:58.514Z,2.97
2019-05-11T08:05:08.664Z,2.60
2019-05-11T08:06:18.260Z,4.33
2019-05-11T08:07:28.551Z,4.50
2019-05-11T08:08:38.453Z,2.50
2019-05-11T08:09:48.335Z,8.13
2019-05-11T08:10:58.642Z,3.27
2019-05-11T08:12:08.969Z,2.67
2019-05-11T08:13:17.899Z,2.97
2019-05-11T08:14:28.585Z,3.50
2019-05-11T08:15:38.265Z,2.77
2019-05-11T08:16:48.030Z,2.27
2019-05-11T08:17:57.800Z,3.27
2019-05-11T08:19:08.125Z,1.50
2019-05-11T08:20:18.583Z,4.23
2019-05-11T08:21:28.357Z,1.70
2019-05-11T08:22:37.747Z,2.97
2019-05-11T08:23:48.111Z,2.58
2019-05-11T08:24:55.914Z,2.40
2019-05-11T08:26:04.123Z,1.90
2019-05-11T08:27:12.425Z,3.87
2019-05-11T08:28:20.597Z,2.67
2019-05-11T08:29:28.945Z,1.67
2019-05-11T08:30:38.145Z,3.70
2019-05-11T08:31:48.688Z,1.43
2019-05-11T08:32:58.269Z,5.57
2019-05-11T08:34:08.922Z,1.30
2019-05-11T08:35:17.892Z,3.80
2019-05-11T08:36:28.556Z,4.28
2019-05-11T08:37:36.078Z,3.93
2019-05-11T08:38:44.892Z,2.57
2019-05-11T08:39:53.157Z,2.53
2019-05-11T08:41:01.542Z,1.37
2019-05-11T08:42:09.695Z,6.95
2019-05-11T08:43:18.093Z,2.50
2019-05-11T08:44:28.553Z,3.37
2019-05-11T08:45:39.054Z,2.27
2019-05-11T08:46:47.865Z,4.50
2019-05-11T08:47:57.943Z,2.43
2019-05-11T08:49:08.448Z,1.93
2019-05-11T08:50:18.702Z,2.30
2019-05-11T08:51:28.010Z,1.97
2019-05-11T08:52:38.696Z,4.60
2019-05-11T08:53:48.022Z,2.77
2019-05-11T08:54:57.760Z,1.10
2019-05-11T08:56:06.104Z,1.87
2019-05-11T08:57:14.612Z,1.60
2019-05-11T08:58:23.062Z,1.17
2019-05-11T08:59:31.420Z,3.20
2019-05-11T09:00:39.780Z,1.70
2019-05-11T09:01:48.520Z,2.00
2019-05-11T09:02:58.296Z,4.60
2019-05-11T09:04:08.919Z,1.95
2019-05-11T09:05:18.747Z,4.95
2019-05-11T09:06:28.400Z,2.80
2019-05-11T09:07:38.426Z,2.00
2019-05-11T09:08:49.239Z,3.63
2019-05-11T09:09:58.625Z,3.33
2019-05-11T09:11:08.432Z,3.00
2019-05-11T09:12:18.327Z,2.37
2019-05-11T09:13:27.910Z,1.85
2019-05-11T09:14:38.544Z,2.70
2019-05-11T09:15:48.381Z,2.60
2019-05-11T09:16:57.776Z,4.67
2019-05-11T09:18:08.268Z,3.43
2019-05-11T09:19:17.649Z,2.80
2019-05-11T09:20:25.435Z,2.50
2019-05-11T09:21:33.421Z,2.03
2019-05-11T09:22:42.435Z,1.77
2019-05-11T09:23:51.894Z,6.57
2019-05-11T09:25:00.680Z,1.70
2019-05-11T09:26:08.976Z,5.50
2019-05-11T09:27:18.364Z,2.87
2019-05-11T09:28:29.319Z,3.17
2019-05-11T09:29:38.733Z,2.27
2019-05-11T09:30:48.330Z,3.95
2019-05-11T09:31:58.255Z,2.77
2019-05-11T09:33:08.566Z,2.55
2019-05-11T09:34:18.087Z,5.10
2019-05-11T09:35:29.028Z,2.73
2019-05-11T09:36:38.944Z,2.30
2019-05-11T09:37:54.008Z,2.50
2019-05-11T09:39:02.320Z,1.33
2019-05-11T09:40:10.567Z,1.97
2019-05-11T09:41:29.948Z,2.57
2019-05-11T09:42:41.083Z,1.63
2019-05-11T09:43:53.981Z,1.83
2019-05-11T09:45:08.302Z,4.03
2019-05-11T09:46:19.100Z,3.12
2019-05-11T09:47:34.931Z,1.55
2019-05-11T09:48:45.253Z,3.15
2019-05-11T09:50:17.953Z,6.03
2019-05-11T09:51:24.852Z,2.40
2019-05-11T09:52:32.875Z,3.75
2019-05-11T09:53:42.189Z,2.43
2019-05-11T09:54:50.186Z,2.80
2019-05-11T09:55:58.852Z,2.87
2019-05-11T09:57:08.334Z,1.32
2019-05-11T09:58:19.740Z,4.87
2019-05-11T09:59:29.829Z,4.62
2019-05-11T10:00:48.320Z,3.90
2019-05-11T10:01:58.738Z,2.22
2019-05-11T10:03:08.283Z,1.50
2019-05-11T10:04:18.055Z,2.02
2019-05-11T10:05:28.426Z,2.65
2019-05-11T10:06:36.068Z,3.35
2019-05-11T10:07:44.528Z,1.57
2019-05-11T10:08:52.591Z,1.17
2019-05-11T10:10:01.167Z,3.77
2019-05-11T10:11:09.144Z,1.77
2019-05-11T10:12:18.214Z,1.67
2019-05-11T10:13:27.883Z,1.30
2019-05-11T10:14:37.994Z,2.55
2019-05-11T10:16:01.006Z,6.53
2019-05-11T10:16:58.445Z,1.75
2019-05-11T10:18:08.180Z,3.42
2019-05-11T10:19:17.911Z,2.30
2019-05-11T10:20:28.474Z,2.42
2019-05-11T10:21:38.367Z,5.03
2019-05-11T10:22:45.904Z,3.20
2019-05-11T10:23:54.159Z,1.25
2019-05-11T10:25:02.229Z,2.27
2019-05-11T10:26:10.572Z,2.08
2019-05-11T10:27:19.018Z,1.02
2019-05-11T10:28:28.482Z,3.27
2019-05-11T10:29:38.272Z,1.15
2019-05-11T10:30:48.547Z,3.20
2019-05-11T10:31:58.477Z,2.15
2019-05-11T10:33:08.244Z,3.42
2019-05-11T10:34:17.912Z,3.70
2019-05-11T10:35:28.221Z,1.50
2019-05-11T10:36:38.516Z,1.87
2019-05-11T10:37:47.789Z,2.98
2019-05-11T10:38:58.664Z,1.72
2019-05-11T10:40:09.588Z,4.85
2019-05-11T10:41:18.333Z,3.40
2019-05-11T10:42:28.514Z,1.87
2019-05-11T10:43:38.022Z,2.35
2019-05-11T10:44:47.876Z,3.50
2019-05-11T10:45:58.632Z,6.22
2019-05-11T10:47:08.184Z,1.60
2019-05-11T10:48:17.753Z,1.95
2019-05-11T10:49:28.648Z,1.37
2019-05-11T10:50:38.041Z,1.30
2019-05-11T10:51:48.464Z,1.30
2019-05-11T10:52:55.730Z,1.25
2019-05-11T10:54:04.209Z,0.55
2019-05-11T10:55:12.626Z,1.07
2019-05-11T10:56:21.241Z,1.67
2019-05-11T10:57:29.519Z,5.20
2019-05-11T10:58:38.936Z,2.55
2019-05-11T10:59:48.830Z,2.87
2019-05-11T11:00:58.236Z,1.62
2019-05-11T11:02:08.035Z,1.98
2019-05-11T11:03:17.867Z,2.00
2019-05-11T11:04:28.592Z,1.30
2019-05-11T11:05:38.451Z,1.80
2019-05-11T11:06:48.488Z,2.80
2019-05-11T11:07:58.909Z,2.40
2019-05-11T11:09:10.043Z,1.32
2019-05-11T11:10:18.659Z,1.20
2019-05-11T11:11:27.827Z,0.72
2019-05-11T11:12:38.549Z,0.95
2019-05-11T11:13:48.059Z,2.20
2019-05-11T11:14:58.562Z,1.65
2019-05-11T11:16:08.211Z,3.22
2019-05-11T11:17:18.923Z,6.67
2019-05-11T11:18:28.231Z,0.90
2019-05-11T11:19:38.088Z,0.90
2019-05-11T11:20:48.676Z,5.67
2019-05-11T11:22:07.836Z,1.85
2019-05-11T11:23:14.042Z,1.52
2019-05-11T11:24:22.400Z,1.47
2019-05-11T11:25:30.572Z,0.50
2019-05-11T11:26:39.638Z,2.50
2019-05-11T11:27:48.742Z,0.45
2019-05-11T11:28:58.075Z,0.30
2019-05-11T11:30:09.430Z,2.10
2019-05-11T11:31:18.603Z,3.08
2019-05-11T11:32:28.314Z,2.02
2019-05-11T11:33:38.243Z,2.45
2019-05-11T11:34:48.356Z,1.52
2019-05-11T11:35:58.007Z,1.32
2019-05-11T11:37:08.233Z,0.53
2019-05-11T11:38:18.077Z,0.98
2019-05-11T11:39:28.254Z,0.82
2019-05-11T11:40:38.721Z,0.40
2019-05-11T11:41:48.590Z,0.50
2019-05-11T11:42:58.106Z,1.60
2019-05-11T11:44:07.915Z,2.98
2019-05-11T11:45:18.267Z,0.62
2019-05-11T11:46:27.757Z,0.70
2019-05-11T11:47:38.374Z,0.62
2019-05-11T11:48:45.974Z,2.45
2019-05-11T11:49:54.342Z,1.30
2019-05-11T11:51:02.378Z,0.55
2019-05-11T11:52:10.763Z,0.62
2019-05-11T11:53:18.982Z,0.33
2019-05-11T11:54:28.776Z,0.80
2019-05-11T11:55:38.854Z,0.55
2019-05-11T11:56:48.494Z,3.62
2019-05-11T11:57:58.849Z,0.47
2019-05-11T11:59:08.562Z,0.40
2019-05-11T12:00:18.279Z,0.42
2019-05-11T12:01:28.090Z,0.85
2019-05-11T12:02:38.579Z,0.30
2019-05-11T12:03:48.488Z,3.08
2019-05-11T12:04:57.695Z,0.30
2019-05-11T12:06:06.000Z,0.50
2019-05-11T12:07:14.048Z,0.60
2019-05-11T12:08:22.519Z,1.55
2019-05-11T12:09:31.361Z,0.20
2019-05-11T12:10:40.309Z,0.53
2019-05-11T12:11:48.763Z,0.20
2019-05-11T12:12:58.141Z,0.40
2019-05-11T12:14:08.764Z,0.90
2019-05-11T12:15:19.638Z,2.05
2019-05-11T12:16:28.189Z,0.95
2019-05-11T12:17:38.383Z,0.98
2019-05-11T12:18:48.406Z,0.80
2019-05-11T12:19:58.418Z,0.25
2019-05-11T12:21:07.968Z,2.42
2019-05-11T12:22:18.694Z,1.20
2019-05-11T12:23:28.341Z,0.75
2019-05-11T12:24:37.548Z,0.55
2019-05-11T12:25:48.451Z,1.70
2019-05-11T12:26:58.530Z,0.50
2019-05-11T12:28:08.038Z,0.40
2019-05-11T12:29:18.738Z,0.72
2019-05-11T12:30:28.509Z,0.30
2019-05-11T12:31:37.928Z,0.55
2019-05-11T12:32:48.709Z,1.22
2019-05-11T12:33:58.603Z,2.67
2019-05-11T12:35:09.044Z,3.90
2019-05-11T12:36:18.825Z,1.67
2019-05-11T12:37:28.336Z,0.90
2019-05-11T12:38:38.215Z,1.98
2019-05-11T12:39:47.877Z,0.30
2019-05-11T12:40:57.945Z,0.82
2019-05-11T12:42:08.500Z,0.30
2019-05-11T12:43:18.634Z,0.93
2019-05-11T12:44:28.159Z,0.30
2019-05-11T12:45:37.628Z,2.25
2019-05-11T12:46:48.619Z,1.45
2019-05-11T12:47:58.697Z,1.17
2019-05-11T12:49:07.814Z,0.30
2019-05-11T12:50:18.666Z,0.30
2019-05-11T12:51:27.658Z,0.40
2019-05-11T12:52:38.121Z,2.27
2019-05-11T12:53:47.623Z,0.42
2019-05-11T12:54:58.357Z,0.82
2019-05-11T12:56:08.267Z,0.20
2019-05-11T12:57:18.707Z,0.20
2019-05-11T12:58:28.069Z,0.72
2019-05-11T12:59:38.112Z,0.25
2019-05-11T13:00:48.013Z,1.10
2019-05-11T13:01:58.828Z,1.65
2019-05-11T13:03:08.074Z,3.45
2019-05-11T13:04:18.172Z,1.22
2019-05-11T13:05:28.540Z,2.33
2019-05-11T13:06:38.749Z,2.27
2019-05-11T13:07:48.087Z,0.75
2019-05-11T13:08:58.738Z,0.75
2019-05-11T13:10:08.687Z,2.87
2019-05-11T13:11:18.722Z,0.50
2019-05-11T13:12:27.940Z,0.75
2019-05-11T13:13:37.767Z,0.60
2019-05-11T13:14:46.010Z,0.85
2019-05-11T13:15:54.963Z,0.42
2019-05-11T13:17:02.741Z,1.10
2019-05-11T13:18:11.493Z,1.98
2019-05-11T13:19:19.791Z,1.57
2019-05-11T13:20:28.798Z,2.08
2019-05-11T13:21:38.273Z,0.37
2019-05-11T13:22:48.837Z,0.50
2019-05-11T13:23:57.706Z,1.02
2019-05-11T13:25:08.677Z,0.82
2019-05-11T13:26:18.003Z,1.35
2019-05-11T13:27:28.360Z,0.37
2019-05-11T13:28:37.782Z,0.50
2019-05-11T13:29:48.541Z,0.80
2019-05-11T13:30:58.029Z,0.98
2019-05-11T13:32:07.873Z,0.93
2019-05-11T13:33:16.092Z,0.62
2019-05-11T13:34:24.660Z,1.45
2019-05-11T13:35:32.793Z,0.57
2019-05-11T13:36:40.976Z,0.50
2019-05-11T13:37:49.395Z,0.68
2019-05-11T13:38:58.730Z,3.08
2019-05-11T13:40:09.562Z,0.98
2019-05-11T13:41:18.746Z,0.72
2019-05-11T13:42:27.743Z,0.50
2019-05-11T13:43:38.492Z,0.75
2019-05-11T13:44:47.816Z,2.92
2019-05-11T13:45:58.412Z,0.30
2019-05-11T13:47:08.442Z,0.88
2019-05-11T13:48:17.692Z,0.68
2019-05-11T13:49:28.323Z,1.90
2019-05-11T13:50:38.459Z,2.70
2019-05-11T13:51:48.049Z,2.00
2019-05-11T13:52:58.225Z,1.57
2019-05-11T13:54:07.937Z,0.65
2019-05-11T13:55:18.168Z,1.07
2019-05-11T13:56:28.118Z,1.95
2019-05-11T13:57:38.036Z,1.35
2019-05-11T13:58:48.850Z,0.75
2019-05-11T13:59:57.945Z,0.35
2019-05-11T14:01:08.116Z,1.40
2019-05-11T14:02:18.045Z,0.78
2019-05-11T14:03:27.700Z,2.00
2019-05-11T14:04:38.525Z,0.60
2019-05-11T14:05:48.298Z,2.65
2019-05-11T14:06:58.573Z,1.75
2019-05-11T14:08:08.123Z,1.60
2019-05-11T14:09:18.468Z,0.93
2019-05-11T14:10:28.292Z,1.10
2019-05-11T14:11:39.011Z,2.67
2019-05-11T14:12:47.676Z,3.27
2019-05-11T14:13:58.513Z,0.33
2019-05-11T14:15:10.577Z,0.60
2019-05-11T14:16:19.163Z,0.55
2019-05-11T14:17:31.216Z,0.90
2019-05-11T14:18:38.658Z,1.62
2019-05-11T14:19:49.177Z,2.37
2019-05-11T14:20:58.607Z,2.95
2019-05-11T14:22:08.681Z,1.60
2019-05-11T14:23:18.296Z,3.58
2019-05-11T14:24:28.801Z,1.35
2019-05-11T14:25:38.121Z,1.07
2019-05-11T14:26:48.817Z,1.62
2019-05-11T14:27:59.372Z,0.65
2019-05-11T14:29:08.468Z,0.65
2019-05-11T14:30:19.163Z,0.90
2019-05-11T14:31:28.370Z,4.72
2019-05-11T14:32:38.888Z,0.62
2019-05-11T14:33:48.688Z,1.25
2019-05-11T14:34:57.794Z,1.95
2019-05-11T14:36:08.375Z,0.68
2019-05-11T14:37:18.106Z,1.52
2019-05-11T14:38:25.908Z,0.85
2019-05-11T14:39:34.305Z,2.52
2019-05-11T14:40:42.467Z,2.62
2019-05-11T14:41:52.237Z,1.15
2019-05-11T14:43:00.745Z,1.17
2019-05-11T14:44:09.234Z,0.98
2019-05-11T14:45:18.689Z,2.15
2019-05-11T14:46:27.941Z,0.93
2019-05-11T14:47:38.395Z,0.85
2019-05-11T14:48:48.165Z,1.80
2019-05-11T14:49:57.857Z,1.00
2019-05-11T14:51:08.563Z,1.32
2019-05-11T14:52:18.795Z,1.42
2019-05-11T14:53:28.338Z,1.55
2019-05-11T14:54:38.218Z,0.90
2019-05-11T14:55:48.783Z,1.10
2019-05-11T14:56:58.637Z,1.52
2019-05-11T14:58:08.321Z,1.20
2019-05-11T14:59:18.449Z,1.10
2019-05-11T15:00:28.801Z,1.80
2019-05-11T15:01:38.120Z,1.45
2019-05-11T15:02:49.271Z,1.57
2019-05-11T15:03:58.731Z,1.35
2019-05-11T15:05:08.776Z,1.35
2019-05-11T15:06:18.742Z,1.80
2019-05-11T15:07:28.343Z,1.15
2019-05-11T15:08:38.705Z,2.05
2019-05-11T15:09:48.066Z,3.42